sensor_id;sensor_type;location;lat;lon;timestamp;P1;durP1;ratioP1;P2;durP2;ratioP2
64282;SDS011;50497;50.720;-2.084;2023-11-21T00:01:50;6.10;;;1.40;;
64282;SDS011;50497;50.720;-2.084;2023-11-21T00:04:15;8.77;;;1.98;;
64282;SDS011;50497;50.720;-2.084;2023-11-21T00:06:41;5.93;;;1.60;;
64282;SDS011;50497;50.720;-2.084;2023-11-21T00:09:06;4.97;;;1.52;;
64282;SDS011;50497;50.720;-2.084;2023-11-21T00:11:33;6.95;;;1.70;;
64282;SDS011;50497;50.720;-2.084;2023-11-21T00:13:58;6.78;;;1.60;;
64282;SDS011;50497;50.720;-2.084;2023-11-21T00:16:24;6.65;;;1.50;;
64282;SDS011;50497;50.720;-2.084;2023-11-21T00:18:50;6.97;;;1.95;;
64282;SDS011;50497;50.720;-2.084;2023-11-21T00:21:16;8.15;;;3.40;;
64282;SDS011;50497;50.720;-2.084;2023-11-21T00:23:41;10.05;;;2.05;;
64282;SDS011;50497;50.720;-2.084;2023-11-21T00:26:07;7.28;;;2.10;;
64282;SDS011;50497;50.720;-2.084;2023-11-21T00:28:32;7.47;;;1.80;;
64282;SDS011;50497;50.720;-2.084;2023-11-21T00:30:58;10.23;;;1.90;;
64282;SDS011;50497;50.720;-2.084;2023-11-21T00:33:23;7.05;;;2.10;;
64282;SDS011;50497;50.720;-2.084;2023-11-21T00:38:15;8.00;;;2.33;;
64282;SDS011;50497;50.720;-2.084;2023-11-21T00:40:43;7.93;;;1.70;;
64282;SDS011;50497;50.720;-2.084;2023-11-21T00:43:08;9.13;;;2.35;;
64282;SDS011;50497;50.720;-2.084;2023-11-21T00:45:34;7.25;;;2.00;;
64282;SDS011;50497;50.720;-2.084;2023-11-21T00:48:00;6.80;;;1.92;;
64282;SDS011;50497;50.720;-2.084;2023-11-21T00:50:25;10.48;;;2.75;;
64282;SDS011;50497;50.720;-2.084;2023-11-21T00:52:51;6.85;;;1.73;;
64282;SDS011;50497;50.720;-2.084;2023-11-21T00:55:16;7.43;;;2.03;;
64282;SDS011;50497;50.720;-2.084;2023-11-21T00:57:43;8.30;;;2.00;;
64282;SDS011;50497;50.720;-2.084;2023-11-21T01:00:08;7.00;;;1.75;;
64282;SDS011;50497;50.720;-2.084;2023-11-21T01:19:56;7.97;;;2.00;;
64282;SDS011;50497;50.720;-2.084;2023-11-21T01:22:22;7.95;;;1.77;;
64282;SDS011;50497;50.720;-2.084;2023-11-21T01:24:51;6.00;;;1.50;;
64282;SDS011;50497;50.720;-2.084;2023-11-21T01:29:43;5.90;;;2.40;;
64282;SDS011;50497;50.720;-2.084;2023-11-21T01:32:09;6.15;;;1.70;;
64282;SDS011;50497;50.720;-2.084;2023-11-21T01:34:35;5.57;;;1.50;;
64282;SDS011;50497;50.720;-2.084;2023-11-21T01:37:00;4.97;;;1.50;;
64282;SDS011;50497;50.720;-2.084;2023-11-21T01:39:26;5.80;;;1.60;;
64282;SDS011;50497;50.720;-2.084;2023-11-21T01:41:51;8.13;;;1.65;;
64282;SDS011;50497;50.720;-2.084;2023-11-21T01:44:17;6.25;;;1.67;;
64282;SDS011;50497;50.720;-2.084;2023-11-21T01:46:44;4.82;;;1.30;;
64282;SDS011;50497;50.720;-2.084;2023-11-21T01:49:11;7.97;;;1.48;;
64282;SDS011;50497;50.720;-2.084;2023-11-21T01:54:04;4.53;;;1.40;;
64282;SDS011;50497;50.720;-2.084;2023-11-21T01:56:31;6.25;;;1.50;;
64282;SDS011;50497;50.720;-2.084;2023-11-21T01:58:57;4.70;;;1.20;;
64282;SDS011;50497;50.720;-2.084;2023-11-21T02:01:22;5.57;;;1.75;;
64282;SDS011;50497;50.720;-2.084;2023-11-21T02:03:48;5.65;;;1.70;;
64282;SDS011;50497;50.720;-2.084;2023-11-21T02:06:13;5.88;;;1.70;;
64282;SDS011;50497;50.720;-2.084;2023-11-21T02:08:39;9.75;;;2.38;;
64282;SDS011;50497;50.720;-2.084;2023-11-21T02:11:04;6.00;;;1.60;;
64282;SDS011;50497;50.720;-2.084;2023-11-21T02:13:30;7.15;;;1.75;;
64282;SDS011;50497;50.720;-2.084;2023-11-21T02:15:56;6.80;;;2.00;;
64282;SDS011;50497;50.720;-2.084;2023-11-21T02:18:23;5.97;;;1.60;;
64282;SDS011;50497;50.720;-2.084;2023-11-21T02:20:48;5.75;;;1.50;;
64282;SDS011;50497;50.720;-2.084;2023-11-21T02:23:14;4.60;;;1.45;;
64282;SDS011;50497;50.720;-2.084;2023-11-21T02:25:39;4.53;;;1.60;;
64282;SDS011;50497;50.720;-2.084;2023-11-21T02:28:05;8.80;;;1.60;;
64282;SDS011;50497;50.720;-2.084;2023-11-21T02:30:31;5.68;;;1.40;;
64282;SDS011;50497;50.720;-2.084;2023-11-21T02:32:57;6.03;;;1.67;;
64282;SDS011;50497;50.720;-2.084;2023-11-21T02:35:23;5.70;;;1.60;;
64282;SDS011;50497;50.720;-2.084;2023-11-21T02:37:50;7.72;;;1.60;;
64282;SDS011;50497;50.720;-2.084;2023-11-21T02:40:17;6.25;;;1.75;;
64282;SDS011;50497;50.720;-2.084;2023-11-21T02:42:45;5.72;;;1.65;;
64282;SDS011;50497;50.720;-2.084;2023-11-21T02:45:16;8.23;;;2.42;;
64282;SDS011;50497;50.720;-2.084;2023-11-21T02:50:08;6.10;;;1.73;;
64282;SDS011;50497;50.720;-2.084;2023-11-21T02:52:34;5.85;;;1.45;;
64282;SDS011;50497;50.720;-2.084;2023-11-21T02:55:00;5.32;;;1.30;;
64282;SDS011;50497;50.720;-2.084;2023-11-21T02:57:26;6.47;;;1.50;;
64282;SDS011;50497;50.720;-2.084;2023-11-21T02:59:52;6.57;;;1.70;;
64282;SDS011;50497;50.720;-2.084;2023-11-21T03:02:17;6.15;;;1.58;;
64282;SDS011;50497;50.720;-2.084;2023-11-21T03:04:42;4.45;;;1.55;;
64282;SDS011;50497;50.720;-2.084;2023-11-21T03:07:08;5.78;;;1.65;;
64282;SDS011;50497;50.720;-2.084;2023-11-21T03:09:34;4.13;;;1.40;;
64282;SDS011;50497;50.720;-2.084;2023-11-21T03:12:00;5.75;;;1.40;;
64282;SDS011;50497;50.720;-2.084;2023-11-21T03:14:25;4.65;;;1.42;;
64282;SDS011;50497;50.720;-2.084;2023-11-21T03:16:50;6.78;;;1.50;;
64282;SDS011;50497;50.720;-2.084;2023-11-21T03:19:16;7.13;;;1.40;;
64282;SDS011;50497;50.720;-2.084;2023-11-21T03:21:42;5.18;;;1.60;;
64282;SDS011;50497;50.720;-2.084;2023-11-21T03:24:07;4.32;;;1.40;;
64282;SDS011;50497;50.720;-2.084;2023-11-21T03:26:33;5.38;;;1.63;;
64282;SDS011;50497;50.720;-2.084;2023-11-21T03:28:58;3.60;;;1.40;;
64282;SDS011;50497;50.720;-2.084;2023-11-21T03:31:24;5.28;;;1.50;;
64282;SDS011;50497;50.720;-2.084;2023-11-21T03:33:49;7.07;;;1.75;;
64282;SDS011;50497;50.720;-2.084;2023-11-21T03:36:14;5.38;;;1.80;;
64282;SDS011;50497;50.720;-2.084;2023-11-21T03:38:40;5.13;;;1.60;;
64282;SDS011;50497;50.720;-2.084;2023-11-21T03:43:31;4.28;;;1.40;;
64282;SDS011;50497;50.720;-2.084;2023-11-21T03:45:57;5.47;;;1.60;;
64282;SDS011;50497;50.720;-2.084;2023-11-21T03:48:22;5.53;;;1.63;;
64282;SDS011;50497;50.720;-2.084;2023-11-21T03:50:48;5.57;;;1.50;;
64282;SDS011;50497;50.720;-2.084;2023-11-21T03:53:14;4.15;;;1.50;;
64282;SDS011;50497;50.720;-2.084;2023-11-21T03:55:39;5.68;;;1.85;;
64282;SDS011;50497;50.720;-2.084;2023-11-21T03:58:04;8.48;;;1.80;;
64282;SDS011;50497;50.720;-2.084;2023-11-21T04:00:30;6.40;;;1.55;;
64282;SDS011;50497;50.720;-2.084;2023-11-21T04:02:55;4.32;;;1.70;;
64282;SDS011;50497;50.720;-2.084;2023-11-21T04:05:21;6.47;;;1.70;;
64282;SDS011;50497;50.720;-2.084;2023-11-21T04:07:48;5.43;;;1.63;;
64282;SDS011;50497;50.720;-2.084;2023-11-21T04:10:15;5.43;;;1.60;;
64282;SDS011;50497;50.720;-2.084;2023-11-21T04:12:40;4.82;;;1.60;;
64282;SDS011;50497;50.720;-2.084;2023-11-21T04:15:06;6.28;;;1.77;;
64282;SDS011;50497;50.720;-2.084;2023-11-21T04:17:33;9.30;;;2.03;;
64282;SDS011;50497;50.720;-2.084;2023-11-21T04:19:59;5.88;;;1.70;;
64282;SDS011;50497;50.720;-2.084;2023-11-21T04:22:24;4.45;;;1.77;;
64282;SDS011;50497;50.720;-2.084;2023-11-21T04:24:50;6.50;;;1.80;;
64282;SDS011;50497;50.720;-2.084;2023-11-21T04:27:15;4.95;;;1.65;;
64282;SDS011;50497;50.720;-2.084;2023-11-21T04:29:43;6.22;;;1.90;;
64282;SDS011;50497;50.720;-2.084;2023-11-21T04:32:09;5.32;;;1.90;;
64282;SDS011;50497;50.720;-2.084;2023-11-21T04:34:34;5.57;;;1.70;;
64282;SDS011;50497;50.720;-2.084;2023-11-21T04:37:00;5.00;;;1.90;;
64282;SDS011;50497;50.720;-2.084;2023-11-21T04:39:25;4.88;;;1.80;;
64282;SDS011;50497;50.720;-2.084;2023-11-21T04:41:50;5.18;;;1.70;;
64282;SDS011;50497;50.720;-2.084;2023-11-21T04:44:16;4.90;;;1.63;;
64282;SDS011;50497;50.720;-2.084;2023-11-21T04:46:42;6.45;;;1.80;;
64282;SDS011;50497;50.720;-2.084;2023-11-21T04:49:07;5.68;;;1.88;;
64282;SDS011;50497;50.720;-2.084;2023-11-21T04:51:33;6.75;;;1.92;;
64282;SDS011;50497;50.720;-2.084;2023-11-21T04:53:58;5.78;;;1.90;;
64282;SDS011;50497;50.720;-2.084;2023-11-21T04:56:24;5.70;;;2.10;;
64282;SDS011;50497;50.720;-2.084;2023-11-21T04:58:49;5.55;;;2.13;;
64282;SDS011;50497;50.720;-2.084;2023-11-21T05:01:15;5.97;;;2.20;;
64282;SDS011;50497;50.720;-2.084;2023-11-21T05:03:40;5.22;;;1.75;;
64282;SDS011;50497;50.720;-2.084;2023-11-21T05:06:06;7.70;;;3.35;;
64282;SDS011;50497;50.720;-2.084;2023-11-21T05:08:34;5.60;;;2.47;;
64282;SDS011;50497;50.720;-2.084;2023-11-21T05:10:59;6.93;;;2.50;;
64282;SDS011;50497;50.720;-2.084;2023-11-21T05:13:25;6.78;;;2.30;;
64282;SDS011;50497;50.720;-2.084;2023-11-21T05:15:53;5.95;;;2.40;;
64282;SDS011;50497;50.720;-2.084;2023-11-21T05:18:22;6.03;;;2.30;;
64282;SDS011;50497;50.720;-2.084;2023-11-21T05:20:47;6.57;;;2.67;;
64282;SDS011;50497;50.720;-2.084;2023-11-21T05:23:13;6.75;;;2.63;;
64282;SDS011;50497;50.720;-2.084;2023-11-21T05:25:38;6.47;;;2.83;;
64282;SDS011;50497;50.720;-2.084;2023-11-21T05:28:03;6.15;;;2.45;;
64282;SDS011;50497;50.720;-2.084;2023-11-21T05:30:29;6.60;;;3.10;;
64282;SDS011;50497;50.720;-2.084;2023-11-21T05:32:54;7.32;;;2.80;;
64282;SDS011;50497;50.720;-2.084;2023-11-21T05:35:20;7.00;;;2.85;;
64282;SDS011;50497;50.720;-2.084;2023-11-21T05:37:46;8.63;;;3.33;;
64282;SDS011;50497;50.720;-2.084;2023-11-21T05:40:11;8.90;;;3.72;;
64282;SDS011;50497;50.720;-2.084;2023-11-21T05:42:38;8.25;;;3.63;;
64282;SDS011;50497;50.720;-2.084;2023-11-21T05:45:04;10.15;;;4.22;;
64282;SDS011;50497;50.720;-2.084;2023-11-21T05:47:45;8.48;;;4.00;;
64282;SDS011;50497;50.720;-2.084;2023-11-21T05:50:12;11.20;;;4.88;;
64282;SDS011;50497;50.720;-2.084;2023-11-21T05:52:40;10.52;;;4.70;;
64282;SDS011;50497;50.720;-2.084;2023-11-21T05:55:06;10.43;;;4.30;;
64282;SDS011;50497;50.720;-2.084;2023-11-21T05:57:33;9.80;;;4.28;;
64282;SDS011;50497;50.720;-2.084;2023-11-21T06:00:01;12.55;;;5.10;;
64282;SDS011;50497;50.720;-2.084;2023-11-21T06:02:40;8.65;;;3.97;;
64282;SDS011;50497;50.720;-2.084;2023-11-21T06:05:08;9.20;;;4.03;;
64282;SDS011;50497;50.720;-2.084;2023-11-21T06:07:34;9.93;;;4.03;;
64282;SDS011;50497;50.720;-2.084;2023-11-21T06:10:01;8.88;;;4.30;;
64282;SDS011;50497;50.720;-2.084;2023-11-21T06:12:28;9.73;;;4.43;;
64282;SDS011;50497;50.720;-2.084;2023-11-21T06:14:53;10.70;;;4.70;;
64282;SDS011;50497;50.720;-2.084;2023-11-21T06:17:19;11.50;;;4.40;;
64282;SDS011;50497;50.720;-2.084;2023-11-21T06:19:44;10.82;;;4.30;;
64282;SDS011;50497;50.720;-2.084;2023-11-21T06:24:36;8.05;;;3.65;;
64282;SDS011;50497;50.720;-2.084;2023-11-21T06:27:03;8.75;;;3.95;;
64282;SDS011;50497;50.720;-2.084;2023-11-21T06:29:29;7.50;;;3.28;;
64282;SDS011;50497;50.720;-2.084;2023-11-21T06:31:55;7.95;;;3.38;;
64282;SDS011;50497;50.720;-2.084;2023-11-21T06:34:20;7.03;;;3.25;;
64282;SDS011;50497;50.720;-2.084;2023-11-21T06:36:46;7.70;;;3.55;;
64282;SDS011;50497;50.720;-2.084;2023-11-21T06:39:12;7.22;;;2.90;;
64282;SDS011;50497;50.720;-2.084;2023-11-21T06:41:40;6.88;;;2.80;;
64282;SDS011;50497;50.720;-2.084;2023-11-21T06:44:05;5.10;;;2.40;;
64282;SDS011;50497;50.720;-2.084;2023-11-21T06:46:30;7.85;;;2.72;;
64282;SDS011;50497;50.720;-2.084;2023-11-21T06:48:56;4.80;;;2.25;;
64282;SDS011;50497;50.720;-2.084;2023-11-21T06:51:21;4.95;;;2.17;;
64282;SDS011;50497;50.720;-2.084;2023-11-21T06:53:46;5.75;;;2.25;;
64282;SDS011;50497;50.720;-2.084;2023-11-21T06:56:15;5.05;;;2.10;;
64282;SDS011;50497;50.720;-2.084;2023-11-21T06:58:42;4.75;;;1.67;;
64282;SDS011;50497;50.720;-2.084;2023-11-21T07:01:07;5.18;;;2.25;;
64282;SDS011;50497;50.720;-2.084;2023-11-21T07:03:33;4.95;;;2.25;;
64282;SDS011;50497;50.720;-2.084;2023-11-21T07:05:58;5.63;;;2.60;;
64282;SDS011;50497;50.720;-2.084;2023-11-21T07:08:24;4.88;;;1.98;;
64282;SDS011;50497;50.720;-2.084;2023-11-21T07:10:49;4.93;;;2.10;;
64282;SDS011;50497;50.720;-2.084;2023-11-21T07:13:14;4.80;;;1.88;;
64282;SDS011;50497;50.720;-2.084;2023-11-21T07:15:40;4.45;;;1.90;;
64282;SDS011;50497;50.720;-2.084;2023-11-21T07:18:05;6.82;;;1.90;;
64282;SDS011;50497;50.720;-2.084;2023-11-21T07:20:32;5.20;;;1.75;;
64282;SDS011;50497;50.720;-2.084;2023-11-21T07:22:58;4.10;;;1.90;;
64282;SDS011;50497;50.720;-2.084;2023-11-21T07:25:24;5.43;;;1.98;;
64282;SDS011;50497;50.720;-2.084;2023-11-21T07:27:50;4.28;;;1.83;;
64282;SDS011;50497;50.720;-2.084;2023-11-21T07:30:15;5.50;;;2.38;;
64282;SDS011;50497;50.720;-2.084;2023-11-21T07:32:41;4.70;;;2.00;;
64282;SDS011;50497;50.720;-2.084;2023-11-21T07:35:06;4.65;;;2.05;;
64282;SDS011;50497;50.720;-2.084;2023-11-21T07:37:33;4.65;;;2.20;;
64282;SDS011;50497;50.720;-2.084;2023-11-21T07:39:58;5.10;;;2.35;;
64282;SDS011;50497;50.720;-2.084;2023-11-21T07:42:24;4.70;;;2.20;;
64282;SDS011;50497;50.720;-2.084;2023-11-21T07:44:51;4.40;;;2.10;;
64282;SDS011;50497;50.720;-2.084;2023-11-21T07:47:21;4.82;;;1.92;;
64282;SDS011;50497;50.720;-2.084;2023-11-21T07:49:46;5.22;;;2.17;;
64282;SDS011;50497;50.720;-2.084;2023-11-21T07:52:13;6.65;;;3.08;;
64282;SDS011;50497;50.720;-2.084;2023-11-21T07:54:41;5.07;;;2.10;;
64282;SDS011;50497;50.720;-2.084;2023-11-21T07:57:07;3.97;;;1.83;;
64282;SDS011;50497;50.720;-2.084;2023-11-21T07:59:32;5.68;;;2.22;;
64282;SDS011;50497;50.720;-2.084;2023-11-21T08:01:58;4.53;;;1.70;;
64282;SDS011;50497;50.720;-2.084;2023-11-21T08:04:24;4.38;;;1.50;;
64282;SDS011;50497;50.720;-2.084;2023-11-21T08:06:49;4.00;;;1.40;;
64282;SDS011;50497;50.720;-2.084;2023-11-21T08:09:14;3.25;;;1.40;;
64282;SDS011;50497;50.720;-2.084;2023-11-21T08:11:42;4.15;;;1.40;;
64282;SDS011;50497;50.720;-2.084;2023-11-21T08:14:08;3.25;;;1.50;;
64282;SDS011;50497;50.720;-2.084;2023-11-21T08:16:33;2.17;;;1.30;;
64282;SDS011;50497;50.720;-2.084;2023-11-21T08:18:58;4.05;;;1.40;;
64282;SDS011;50497;50.720;-2.084;2023-11-21T08:21:24;3.17;;;1.45;;
64282;SDS011;50497;50.720;-2.084;2023-11-21T08:23:49;4.55;;;1.45;;
64282;SDS011;50497;50.720;-2.084;2023-11-21T08:26:19;2.72;;;1.50;;
64282;SDS011;50497;50.720;-2.084;2023-11-21T08:28:45;3.60;;;1.63;;
64282;SDS011;50497;50.720;-2.084;2023-11-21T08:31:10;3.13;;;1.60;;
64282;SDS011;50497;50.720;-2.084;2023-11-21T08:33:36;4.07;;;2.00;;
64282;SDS011;50497;50.720;-2.084;2023-11-21T08:36:06;4.05;;;1.90;;
64282;SDS011;50497;50.720;-2.084;2023-11-21T08:38:32;3.80;;;1.52;;
64282;SDS011;50497;50.720;-2.084;2023-11-21T08:40:58;4.15;;;1.60;;
64282;SDS011;50497;50.720;-2.084;2023-11-21T08:43:25;2.80;;;1.33;;
64282;SDS011;50497;50.720;-2.084;2023-11-21T08:45:52;4.72;;;1.60;;
64282;SDS011;50497;50.720;-2.084;2023-11-21T08:48:17;2.95;;;1.60;;
64282;SDS011;50497;50.720;-2.084;2023-11-21T08:50:43;3.38;;;1.50;;
64282;SDS011;50497;50.720;-2.084;2023-11-21T08:53:08;3.58;;;1.40;;
64282;SDS011;50497;50.720;-2.084;2023-11-21T08:55:36;4.13;;;1.50;;
64282;SDS011;50497;50.720;-2.084;2023-11-21T08:58:02;3.67;;;1.30;;
64282;SDS011;50497;50.720;-2.084;2023-11-21T09:00:30;3.13;;;1.30;;
64282;SDS011;50497;50.720;-2.084;2023-11-21T09:02:55;4.80;;;1.50;;
64282;SDS011;50497;50.720;-2.084;2023-11-21T09:05:20;3.53;;;1.23;;
64282;SDS011;50497;50.720;-2.084;2023-11-21T09:07:46;3.25;;;1.20;;
64282;SDS011;50497;50.720;-2.084;2023-11-21T09:10:13;2.50;;;1.30;;
64282;SDS011;50497;50.720;-2.084;2023-11-21T09:12:39;3.30;;;1.40;;
64282;SDS011;50497;50.720;-2.084;2023-11-21T09:15:05;3.47;;;1.30;;
64282;SDS011;50497;50.720;-2.084;2023-11-21T09:17:33;3.00;;;1.35;;
64282;SDS011;50497;50.720;-2.084;2023-11-21T09:20:02;3.53;;;1.30;;
64282;SDS011;50497;50.720;-2.084;2023-11-21T09:22:30;3.22;;;1.23;;
64282;SDS011;50497;50.720;-2.084;2023-11-21T09:24:56;2.80;;;1.35;;
64282;SDS011;50497;50.720;-2.084;2023-11-21T09:27:22;2.05;;;1.02;;
64282;SDS011;50497;50.720;-2.084;2023-11-21T09:29:48;3.30;;;1.30;;
64282;SDS011;50497;50.720;-2.084;2023-11-21T09:32:14;2.92;;;1.30;;
64282;SDS011;50497;50.720;-2.084;2023-11-21T09:34:41;2.60;;;1.20;;
64282;SDS011;50497;50.720;-2.084;2023-11-21T09:37:07;2.33;;;1.10;;
64282;SDS011;50497;50.720;-2.084;2023-11-21T09:39:33;2.90;;;1.30;;
64282;SDS011;50497;50.720;-2.084;2023-11-21T09:42:07;3.30;;;1.40;;
64282;SDS011;50497;50.720;-2.084;2023-11-21T09:44:36;3.35;;;1.27;;
64282;SDS011;50497;50.720;-2.084;2023-11-21T09:47:07;3.55;;;1.15;;
64282;SDS011;50497;50.720;-2.084;2023-11-21T09:49:35;3.13;;;1.20;;
64282;SDS011;50497;50.720;-2.084;2023-11-21T09:52:03;3.05;;;1.20;;
64282;SDS011;50497;50.720;-2.084;2023-11-21T09:54:31;4.05;;;1.30;;
64282;SDS011;50497;50.720;-2.084;2023-11-21T09:57:00;3.10;;;1.23;;
64282;SDS011;50497;50.720;-2.084;2023-11-21T09:59:25;1.98;;;1.15;;
64282;SDS011;50497;50.720;-2.084;2023-11-21T10:01:55;2.88;;;1.25;;
64282;SDS011;50497;50.720;-2.084;2023-11-21T10:04:23;2.65;;;1.10;;
64282;SDS011;50497;50.720;-2.084;2023-11-21T10:06:48;4.03;;;1.48;;
64282;SDS011;50497;50.720;-2.084;2023-11-21T10:11:41;2.13;;;1.20;;
64282;SDS011;50497;50.720;-2.084;2023-11-21T10:14:08;2.03;;;1.10;;
64282;SDS011;50497;50.720;-2.084;2023-11-21T10:16:37;7.15;;;3.78;;
64282;SDS011;50497;50.720;-2.084;2023-11-21T10:19:04;2.75;;;1.10;;
64282;SDS011;50497;50.720;-2.084;2023-11-21T10:21:32;4.32;;;1.10;;
64282;SDS011;50497;50.720;-2.084;2023-11-21T10:23:58;2.33;;;1.10;;
64282;SDS011;50497;50.720;-2.084;2023-11-21T10:26:23;2.50;;;1.23;;
64282;SDS011;50497;50.720;-2.084;2023-11-21T10:28:54;1.60;;;1.10;;
64282;SDS011;50497;50.720;-2.084;2023-11-21T10:31:28;2.40;;;1.20;;
64282;SDS011;50497;50.720;-2.084;2023-11-21T10:33:57;2.50;;;1.17;;
64282;SDS011;50497;50.720;-2.084;2023-11-21T10:36:38;4.35;;;1.35;;
64282;SDS011;50497;50.720;-2.084;2023-11-21T10:39:03;1.80;;;0.90;;
64282;SDS011;50497;50.720;-2.084;2023-11-21T10:41:29;2.72;;;1.15;;
64282;SDS011;50497;50.720;-2.084;2023-11-21T10:43:54;2.90;;;1.10;;
64282;SDS011;50497;50.720;-2.084;2023-11-21T10:48:50;2.13;;;0.93;;
64282;SDS011;50497;50.720;-2.084;2023-11-21T10:51:17;2.88;;;1.00;;
64282;SDS011;50497;50.720;-2.084;2023-11-21T10:56:10;4.18;;;1.50;;
64282;SDS011;50497;50.720;-2.084;2023-11-21T10:58:42;3.42;;;1.60;;
64282;SDS011;50497;50.720;-2.084;2023-11-21T11:01:08;2.92;;;1.10;;
64282;SDS011;50497;50.720;-2.084;2023-11-21T11:03:37;1.70;;;1.00;;
64282;SDS011;50497;50.720;-2.084;2023-11-21T11:06:03;2.65;;;1.05;;
64282;SDS011;50497;50.720;-2.084;2023-11-21T11:08:32;2.47;;;1.20;;
64282;SDS011;50497;50.720;-2.084;2023-11-21T11:10:59;3.72;;;1.40;;
64282;SDS011;50497;50.720;-2.084;2023-11-21T11:13:24;2.53;;;1.17;;
64282;SDS011;50497;50.720;-2.084;2023-11-21T11:15:50;3.25;;;1.13;;
64282;SDS011;50497;50.720;-2.084;2023-11-21T11:18:21;2.75;;;1.10;;
64282;SDS011;50497;50.720;-2.084;2023-11-21T11:23:26;3.90;;;1.10;;
64282;SDS011;50497;50.720;-2.084;2023-11-21T11:32:35;3.55;;;1.30;;
64282;SDS011;50497;50.720;-2.084;2023-11-21T11:35:19;4.78;;;1.80;;
64282;SDS011;50497;50.720;-2.084;2023-11-21T11:37:46;4.10;;;1.42;;
64282;SDS011;50497;50.720;-2.084;2023-11-21T11:40:12;3.45;;;1.40;;
64282;SDS011;50497;50.720;-2.084;2023-11-21T11:42:37;3.33;;;1.20;;
64282;SDS011;50497;50.720;-2.084;2023-11-21T11:45:17;3.05;;;1.40;;
64282;SDS011;50497;50.720;-2.084;2023-11-21T11:47:44;2.03;;;1.00;;
64282;SDS011;50497;50.720;-2.084;2023-11-21T11:50:13;2.78;;;1.27;;
64282;SDS011;50497;50.720;-2.084;2023-11-21T11:52:45;3.95;;;1.20;;
64282;SDS011;50497;50.720;-2.084;2023-11-21T11:55:12;4.00;;;1.40;;
64282;SDS011;50497;50.720;-2.084;2023-11-21T11:57:40;4.65;;;1.60;;
64282;SDS011;50497;50.720;-2.084;2023-11-21T12:02:35;3.75;;;1.60;;
64282;SDS011;50497;50.720;-2.084;2023-11-21T12:05:06;4.35;;;1.92;;
64282;SDS011;50497;50.720;-2.084;2023-11-21T12:07:55;5.30;;;2.15;;
64282;SDS011;50497;50.720;-2.084;2023-11-21T12:10:23;5.30;;;1.90;;
64282;SDS011;50497;50.720;-2.084;2023-11-21T12:12:53;4.68;;;1.85;;
64282;SDS011;50497;50.720;-2.084;2023-11-21T12:15:20;7.22;;;2.20;;
64282;SDS011;50497;50.720;-2.084;2023-11-21T12:17:47;6.90;;;2.10;;
64282;SDS011;50497;50.720;-2.084;2023-11-21T12:20:14;2.05;;;1.10;;
64282;SDS011;50497;50.720;-2.084;2023-11-21T12:22:48;4.63;;;1.50;;
64282;SDS011;50497;50.720;-2.084;2023-11-21T12:27:51;4.65;;;1.70;;
64282;SDS011;50497;50.720;-2.084;2023-11-21T12:30:18;5.40;;;1.70;;
64282;SDS011;50497;50.720;-2.084;2023-11-21T12:32:45;5.57;;;1.75;;
64282;SDS011;50497;50.720;-2.084;2023-11-21T12:35:15;5.13;;;1.75;;
64282;SDS011;50497;50.720;-2.084;2023-11-21T12:37:42;4.75;;;1.60;;
64282;SDS011;50497;50.720;-2.084;2023-11-21T12:40:08;4.38;;;1.80;;
64282;SDS011;50497;50.720;-2.084;2023-11-21T12:42:43;5.32;;;2.10;;
64282;SDS011;50497;50.720;-2.084;2023-11-21T12:47:45;5.15;;;1.70;;
64282;SDS011;50497;50.720;-2.084;2023-11-21T12:50:24;3.85;;;1.70;;
64282;SDS011;50497;50.720;-2.084;2023-11-21T12:52:58;4.78;;;1.70;;
64282;SDS011;50497;50.720;-2.084;2023-11-21T12:55:25;5.32;;;2.00;;
64282;SDS011;50497;50.720;-2.084;2023-11-21T12:57:54;4.70;;;1.70;;
64282;SDS011;50497;50.720;-2.084;2023-11-21T13:00:27;5.10;;;1.63;;
64282;SDS011;50497;50.720;-2.084;2023-11-21T13:02:57;3.47;;;1.50;;
64282;SDS011;50497;50.720;-2.084;2023-11-21T13:05:45;3.78;;;1.60;;
64282;SDS011;50497;50.720;-2.084;2023-11-21T13:08:11;5.50;;;1.90;;
64282;SDS011;50497;50.720;-2.084;2023-11-21T13:10:44;6.88;;;1.83;;
64282;SDS011;50497;50.720;-2.084;2023-11-21T13:13:12;5.53;;;2.10;;
64282;SDS011;50497;50.720;-2.084;2023-11-21T13:15:47;4.72;;;2.15;;
64282;SDS011;50497;50.720;-2.084;2023-11-21T13:18:14;5.90;;;2.50;;
64282;SDS011;50497;50.720;-2.084;2023-11-21T13:20:41;5.53;;;2.30;;
64282;SDS011;50497;50.720;-2.084;2023-11-21T13:23:08;5.15;;;1.90;;
64282;SDS011;50497;50.720;-2.084;2023-11-21T13:25:36;5.03;;;1.70;;
64282;SDS011;50497;50.720;-2.084;2023-11-21T13:28:04;3.60;;;1.65;;
64282;SDS011;50497;50.720;-2.084;2023-11-21T13:30:30;4.13;;;1.80;;
64282;SDS011;50497;50.720;-2.084;2023-11-21T13:32:59;3.75;;;1.48;;
64282;SDS011;50497;50.720;-2.084;2023-11-21T13:35:31;4.03;;;1.70;;
64282;SDS011;50497;50.720;-2.084;2023-11-21T13:38:10;3.72;;;1.60;;
64282;SDS011;50497;50.720;-2.084;2023-11-21T13:40:40;3.90;;;1.60;;
64282;SDS011;50497;50.720;-2.084;2023-11-21T13:43:14;4.25;;;1.80;;
64282;SDS011;50497;50.720;-2.084;2023-11-21T13:45:42;5.10;;;1.80;;
64282;SDS011;50497;50.720;-2.084;2023-11-21T13:48:08;4.10;;;1.50;;
64282;SDS011;50497;50.720;-2.084;2023-11-21T13:50:45;6.35;;;1.70;;
64282;SDS011;50497;50.720;-2.084;2023-11-21T13:55:49;4.22;;;1.85;;
64282;SDS011;50497;50.720;-2.084;2023-11-21T13:58:16;4.90;;;1.90;;
64282;SDS011;50497;50.720;-2.084;2023-11-21T14:00:47;3.95;;;1.80;;
64282;SDS011;50497;50.720;-2.084;2023-11-21T14:03:17;5.68;;;2.00;;
64282;SDS011;50497;50.720;-2.084;2023-11-21T14:05:47;4.40;;;1.70;;
64282;SDS011;50497;50.720;-2.084;2023-11-21T14:08:19;3.90;;;1.67;;
64282;SDS011;50497;50.720;-2.084;2023-11-21T14:10:46;4.97;;;1.77;;
64282;SDS011;50497;50.720;-2.084;2023-11-21T14:13:18;3.95;;;1.73;;
64282;SDS011;50497;50.720;-2.084;2023-11-21T14:15:44;4.15;;;1.73;;
64282;SDS011;50497;50.720;-2.084;2023-11-21T14:18:11;3.97;;;1.83;;
64282;SDS011;50497;50.720;-2.084;2023-11-21T14:20:42;3.60;;;1.65;;
64282;SDS011;50497;50.720;-2.084;2023-11-21T14:23:07;4.20;;;1.70;;
64282;SDS011;50497;50.720;-2.084;2023-11-21T14:25:33;3.72;;;1.50;;
64282;SDS011;50497;50.720;-2.084;2023-11-21T14:27:59;3.63;;;1.40;;
64282;SDS011;50497;50.720;-2.084;2023-11-21T14:30:25;3.90;;;1.60;;
64282;SDS011;50497;50.720;-2.084;2023-11-21T14:32:52;3.40;;;1.40;;
64282;SDS011;50497;50.720;-2.084;2023-11-21T14:35:17;4.80;;;2.30;;
64282;SDS011;50497;50.720;-2.084;2023-11-21T14:37:44;4.68;;;3.05;;
64282;SDS011;50497;50.720;-2.084;2023-11-21T14:40:11;3.78;;;1.30;;
64282;SDS011;50497;50.720;-2.084;2023-11-21T14:42:37;4.78;;;1.42;;
64282;SDS011;50497;50.720;-2.084;2023-11-21T14:45:04;3.08;;;1.27;;
64282;SDS011;50497;50.720;-2.084;2023-11-21T14:47:32;3.67;;;1.38;;
64282;SDS011;50497;50.720;-2.084;2023-11-21T14:49:59;3.42;;;1.60;;
64282;SDS011;50497;50.720;-2.084;2023-11-21T14:52:31;5.15;;;1.70;;
64282;SDS011;50497;50.720;-2.084;2023-11-21T14:55:05;3.50;;;1.58;;
64282;SDS011;50497;50.720;-2.084;2023-11-21T14:57:46;4.25;;;1.50;;
64282;SDS011;50497;50.720;-2.084;2023-11-21T15:00:18;5.03;;;1.60;;
64282;SDS011;50497;50.720;-2.084;2023-11-21T15:02:59;3.08;;;1.30;;
64282;SDS011;50497;50.720;-2.084;2023-11-21T15:05:25;3.80;;;1.30;;
64282;SDS011;50497;50.720;-2.084;2023-11-21T15:07:52;4.45;;;1.48;;
64282;SDS011;50497;50.720;-2.084;2023-11-21T15:10:21;2.58;;;1.20;;
64282;SDS011;50497;50.720;-2.084;2023-11-21T15:12:54;3.75;;;1.30;;
64282;SDS011;50497;50.720;-2.084;2023-11-21T15:15:19;3.30;;;1.15;;
64282;SDS011;50497;50.720;-2.084;2023-11-21T15:20:12;3.13;;;1.10;;
64282;SDS011;50497;50.720;-2.084;2023-11-21T15:22:44;3.70;;;1.10;;
64282;SDS011;50497;50.720;-2.084;2023-11-21T15:25:09;3.05;;;1.25;;
64282;SDS011;50497;50.720;-2.084;2023-11-21T15:27:35;3.25;;;1.17;;
64282;SDS011;50497;50.720;-2.084;2023-11-21T15:30:01;3.35;;;1.30;;
64282;SDS011;50497;50.720;-2.084;2023-11-21T15:32:28;4.82;;;1.38;;
64282;SDS011;50497;50.720;-2.084;2023-11-21T15:34:53;3.55;;;1.40;;